Detall de PIREP

Printer-friendly versionPDF version

[2017/10/14 10:26:00]
Flight IATA:CT3408
Pilot Number:012
Company ICAO:CAT
Aircraft Type:B738/F
PAX:160
Departing Airport: LEBL
Destination Airport: LSGG
Alternate Airport:ETAR
Online: VATSIM
Route:DALIN UN870 MAXIR UN853 KINES
Flight Level:F340
No Slew and time accel
No pause
Crash detect
Detect pilot in Cockpit between each 30 and 45 minutes
10:26 Zero fuel Weight: 127130 Lbs, Fuel Weight: 16115 Lbs
10:26 VATSIM:LEBL 141000Z 05006KT 010V080 9999 FEW015 SCT023 BKN030 23/19 Q1028 NOSIG
10:26 VATSIM:LSGG 140950Z VRB02KT CAVOK 16/09 Q1029 NOSIG
10:27 Parking Brakes off
10:31 Take-off
10:31 Take off Weight: 142629 Lbs
10:31 Wind: 043º @ 006 Knots Heading: 246º
10:31 POS N41º 17´ 04´´ E002º 04´ 50´´
10:31 Flaps:3 at 160 Knots
10:31 Gear Up: 165 Knots
10:31 Flaps:2 at 176 Knots
10:31 Flaps:1 at 192 Knots
10:31 Flaps:0 at 205 Knots
10:46 Wind:273º@012 Knots Heading:059º Ground Speed: 485 Knots Altitude 30688 ft
10:48 TOC
10:48 Fuel Weight: 11949 Lb
11:01 Wind:283º@008 Knots Heading: 041º Ground Speed: 471 Knots Altitude 34442 ft
11:16 Wind:160º@012 Knots Heading: 027º Ground Speed: 476 Knots Altitude 34455 ft
11:20 TOD
11:20 Fuel Weight: 8702 Lb
11:31 Wind:247º@003 Knots Heading: 047º Ground Speed: 378 Knots Altitude 11092 ft
11:32 Flaps:1 at 292 Knots
11:35 Flaps:2 at 216 Knots
11:35 Flaps:3 at 215 Knots
11:35 Flaps:4 at 182 Knots
11:36 Gear Down: 194 Knots
11:37 Flaps:5 at 190 Knots
11:38 Flaps:6 at 185 Knots
11:38 Flaps:7 at 168 Knots
11:40 Flaps:8 at 153 Knots
11:43 TouchDown:Rate -308 ft/min Speed: 130 Knots
11:43 VATSIM:LSGG 141120Z 08003KT 030V140 CAVOK 18/10 Q1029 NOSIG
11:43 Land
11:43 Wind:358º@002 Knots
11:43 Heading: 226º
11:43 Flight Duration: 01:12
11:43 Landing Weight: 134359 Lbs
11:43 POS N46º 14´ 25´´ E006º 06´ 44´´
11:45 Parking brakes on
11:45 Block to Block Duration: 01:18
11:45 Final Fuel: 7116 Lbls
11:45 Spent Fuel: 8999 Lbls
11:45 Flight Length: 481 NM
11:45 TOD Land Length: 117 NM

Exportar CSV

Powered by Drupal - Modified by Danger4k